createdAt,value
2019-01-16T08:06:27.199Z,7.80
2019-01-16T10:41:45.494Z,7.50
2019-01-16T10:43:56.894Z,7.50
2019-01-16T10:46:08.309Z,7.40
2019-01-16T10:48:28.775Z,7.40
2019-01-16T10:50:34.211Z,7.20
2019-01-16T10:52:55.755Z,7.20
2019-01-16T10:55:10.560Z,7.30
2019-01-16T10:57:31.870Z,7.30
2019-01-16T10:59:52.734Z,7.20
2019-01-16T11:01:58.154Z,7.30
2019-01-16T11:04:09.484Z,7.20
2019-01-16T11:06:20.966Z,7.30
2019-01-16T11:08:29.325Z,7.10
2019-01-16T11:11:26.559Z,7.20
2019-01-16T11:13:32.109Z,7.10
2019-01-16T11:15:37.696Z,7.10
2019-01-16T11:17:43.174Z,7.10
2019-01-16T11:19:48.609Z,7.10
2019-01-16T11:21:54.142Z,7.10
2019-01-16T11:24:15.978Z,7.10
2019-01-16T11:26:33.612Z,7.20
2019-01-16T11:28:39.115Z,7.20
2019-01-16T11:31:01.260Z,7.10
2019-01-16T11:33:09.596Z,7.10
2019-01-16T11:35:31.662Z,7.10
2019-01-16T11:37:37.133Z,7.10
2019-01-16T11:39:54.777Z,7.00
2019-01-16T11:42:03.084Z,7.00
2019-01-16T11:44:17.619Z,7.00
2019-01-16T11:46:23.064Z,7.10
2019-01-16T11:48:28.534Z,7.00
2019-01-16T11:50:33.956Z,7.00
2019-01-16T11:52:42.553Z,7.00
2019-01-16T11:55:04.270Z,7.10
2019-01-16T11:57:12.127Z,6.90
2019-01-16T11:59:23.321Z,6.90
2019-01-16T12:01:45.541Z,7.00
2019-01-16T12:03:57.002Z,7.00
2019-01-16T12:06:11.460Z,7.00
2019-01-16T12:08:23.072Z,7.00
2019-01-16T12:10:31.786Z,6.90
2019-01-16T12:12:37.363Z,7.00
2019-01-16T12:15:01.224Z,7.00
2019-01-16T12:17:15.693Z,7.00
2019-01-16T12:19:23.826Z,6.90
2019-01-16T12:21:45.440Z,7.10
2019-01-16T12:24:00.118Z,7.00
2019-01-16T12:26:11.089Z,7.00
2019-01-16T12:28:34.577Z,7.00
2019-01-16T12:30:49.275Z,7.10
2019-01-16T12:32:57.453Z,7.10
2019-01-16T12:35:09.113Z,7.00
2019-01-16T12:37:14.600Z,6.90
2019-01-16T12:39:20.020Z,6.90
2019-01-16T12:41:34.192Z,6.90
2019-01-16T12:43:39.688Z,6.80
2019-01-16T12:45:47.818Z,6.80
2019-01-16T12:47:59.085Z,6.80
2019-01-16T12:50:14.176Z,6.70
2019-01-16T12:52:25.030Z,6.80
2019-01-16T12:54:33.420Z,6.80
2019-01-16T12:56:41.590Z,6.90
2019-01-16T12:59:05.282Z,6.90
2019-01-16T13:01:22.564Z,6.90
2019-01-16T13:03:31.305Z,6.90
2019-01-16T13:05:36.728Z,6.90
2019-01-16T13:07:44.865Z,6.80
2019-01-16T13:09:50.406Z,6.80
2019-01-16T13:12:11.277Z,6.80
2019-01-16T13:14:19.601Z,6.70
2019-01-16T13:16:41.571Z,6.80
2019-01-16T13:18:49.694Z,6.90
2019-01-16T13:20:58.046Z,6.90
2019-01-16T13:23:03.482Z,6.80
2019-01-16T13:25:20.730Z,7.00
2019-01-16T13:27:32.301Z,6.90
2019-01-16T13:29:50.061Z,6.80
2019-01-16T13:32:13.833Z,7.00
2019-01-16T13:34:37.299Z,6.70
2019-01-16T13:36:48.459Z,6.70
2019-01-16T13:38:56.771Z,6.70
2019-01-16T13:41:02.181Z,6.70
2019-01-16T13:43:07.754Z,6.70
2019-01-16T13:45:13.209Z,6.80
2019-01-16T13:47:34.809Z,6.70
2019-01-16T13:49:46.094Z,6.80
2019-01-16T13:51:51.521Z,6.70
2019-01-16T13:54:06.238Z,6.80
2019-01-16T13:56:27.961Z,6.70
2019-01-16T13:58:39.346Z,6.70
2019-01-16T14:00:48.625Z,6.70
2019-01-16T14:03:03.501Z,6.70
2019-01-16T14:05:21.877Z,6.70
2019-01-16T14:07:27.371Z,6.60
2019-01-16T14:09:41.820Z,6.70
2019-01-16T14:11:56.058Z,6.70
2019-01-16T14:14:13.469Z,6.60
2019-01-16T14:16:35.089Z,6.60
2019-01-16T14:18:56.743Z,6.60
2019-01-16T14:21:04.646Z,6.70
2019-01-16T14:23:10.081Z,6.60
2019-01-16T14:25:27.615Z,6.70
2019-01-16T14:27:33.109Z,6.80
2019-01-16T14:29:47.258Z,6.60
2019-01-16T14:32:10.783Z,6.60
2019-01-16T14:34:32.407Z,6.50
2019-01-16T14:36:38.048Z,6.30
2019-01-16T14:38:59.446Z,6.30
2019-01-16T14:41:07.609Z,6.40
2019-01-16T14:43:22.150Z,6.40
2019-01-16T14:45:36.557Z,6.50
2019-01-16T14:47:58.346Z,6.60
2019-01-16T14:50:03.794Z,6.40
2019-01-16T14:52:16.127Z,6.50
2019-01-16T14:54:39.799Z,6.50
2019-01-16T14:56:45.266Z,6.60
2019-01-16T14:58:50.738Z,6.30
2019-01-16T15:00:56.316Z,6.30
2019-01-16T15:03:16.773Z,6.40
2019-01-16T15:05:22.195Z,6.30
2019-01-16T15:07:27.773Z,6.40
2019-01-16T15:09:33.256Z,6.40
2019-01-16T15:11:57.025Z,6.20
2019-01-16T15:14:18.883Z,6.50
2019-01-16T15:16:39.731Z,6.40
2019-01-16T15:19:01.529Z,6.40
2019-01-16T15:21:09.550Z,6.50
2019-01-16T15:23:14.992Z,6.60
2019-01-16T15:25:22.901Z,6.50
2019-01-16T15:27:40.340Z,6.50
2019-01-16T15:29:55.065Z,6.50
2019-01-16T15:32:00.562Z,6.40
2019-01-16T15:34:09.271Z,6.50
2019-01-16T15:36:14.906Z,6.50
2019-01-16T15:38:38.672Z,6.30
2019-01-16T15:40:46.982Z,6.30
2019-01-16T15:43:04.537Z,6.30
2019-01-16T15:45:19.762Z,6.60
2019-01-16T15:47:41.521Z,6.40
2019-01-16T15:49:46.978Z,6.30
2019-01-16T15:51:58.221Z,6.30
2019-01-16T15:54:15.612Z,6.50
2019-01-16T15:56:27.298Z,6.50
2019-01-16T15:58:32.735Z,6.50
2019-01-16T16:00:38.349Z,6.20
2019-01-16T16:02:46.914Z,6.10
2019-01-16T16:05:07.081Z,6.20
2019-01-16T16:07:15.270Z,6.20
2019-01-16T16:09:20.720Z,6.20
2019-01-16T16:11:26.282Z,6.20
2019-01-16T16:13:46.778Z,6.40
2019-01-16T16:15:58.263Z,6.10
2019-01-16T16:18:06.775Z,6.30
2019-01-16T16:20:21.849Z,6.20
2019-01-16T16:22:39.412Z,6.30
2019-01-16T16:24:44.865Z,6.40
2019-01-16T16:26:50.358Z,6.10
2019-01-16T16:29:04.822Z,6.30
2019-01-16T16:31:10.246Z,6.40
2019-01-16T16:33:28.347Z,6.30
2019-01-16T16:35:46.618Z,6.30
2019-01-16T16:37:54.918Z,6.50
2019-01-16T16:40:12.457Z,6.40
2019-01-16T16:42:17.905Z,6.30
2019-01-16T16:44:25.838Z,6.10
2019-01-16T16:46:33.983Z,6.30
2019-01-16T16:48:39.469Z,6.30
2019-01-16T16:50:59.925Z,6.40
2019-01-16T16:53:17.245Z,6.40
2019-01-16T16:55:23.077Z,6.30
2019-01-16T16:57:41.209Z,6.30
2019-01-16T17:00:02.281Z,6.40
2019-01-16T17:02:08.242Z,6.30
2019-01-16T17:04:17.038Z,6.10
2019-01-16T17:06:35.139Z,6.40
2019-01-16T17:08:46.418Z,6.40
2019-01-16T17:10:51.881Z,6.40
2019-01-16T17:13:03.545Z,6.40
2019-01-16T17:15:24.007Z,6.40
2019-01-16T17:17:41.427Z,6.40
2019-01-16T17:19:46.925Z,6.40
2019-01-16T17:22:08.876Z,6.30
2019-01-16T17:24:30.807Z,6.10
2019-01-16T17:26:39.216Z,6.50
2019-01-16T17:28:44.646Z,6.60
2019-01-16T17:30:52.561Z,6.30
2019-01-16T17:32:58.016Z,6.20
2019-01-16T17:35:12.703Z,6.20
2019-01-16T17:37:27.309Z,6.00
2019-01-16T17:39:51.068Z,6.10
2019-01-16T17:41:56.570Z,6.50
2019-01-16T17:44:04.743Z,6.10
2019-01-16T17:46:25.397Z,6.10
2019-01-16T17:48:36.827Z,6.00
2019-01-16T17:50:42.312Z,6.20
2019-01-16T17:52:47.806Z,6.10
2019-01-16T17:55:09.804Z,6.40
2019-01-16T17:57:31.790Z,6.40
2019-01-16T17:59:46.025Z,6.40
2019-01-16T18:01:51.512Z,6.10
2019-01-16T18:04:06.132Z,6.30
2019-01-16T18:06:20.386Z,6.50
2019-01-16T18:08:32.187Z,6.30
2019-01-16T18:10:40.325Z,6.20
2019-01-16T18:12:48.216Z,6.20
2019-01-16T18:14:53.698Z,6.10
2019-01-16T18:17:08.109Z,6.20
2019-01-16T18:19:28.629Z,6.40
2019-01-16T18:21:52.116Z,6.10
2019-01-16T18:23:57.707Z,5.90
2019-01-16T18:26:03.123Z,6.10
2019-01-16T18:28:14.490Z,6.30
2019-01-16T18:30:36.191Z,6.40
2019-01-16T18:32:47.490Z,6.30
2019-01-16T18:34:58.533Z,6.10
2019-01-16T18:37:07.090Z,6.10
2019-01-16T18:39:15.254Z,5.90
2019-01-16T18:41:23.641Z,5.90
2019-01-16T18:43:47.438Z,6.10
2019-01-16T18:46:02.182Z,5.90
2019-01-16T18:48:16.747Z,5.80
2019-01-16T18:50:37.234Z,5.90
2019-01-16T18:52:58.652Z,6.10
2019-01-16T18:55:20.634Z,6.00
2019-01-16T18:57:35.125Z,6.20
2019-01-16T18:59:43.311Z,6.00
2019-01-16T19:01:51.339Z,6.10
2019-01-16T19:03:56.794Z,6.40
2019-01-16T19:06:18.429Z,6.20
2019-01-16T19:08:26.914Z,6.10
2019-01-16T19:10:44.613Z,6.10
2019-01-16T19:13:06.370Z,5.90
2019-01-16T19:15:13.230Z,6.10
2019-01-16T19:17:24.542Z,5.80
2019-01-16T19:19:29.951Z,5.80
2019-01-16T19:21:35.421Z,6.00
2019-01-16T19:23:55.728Z,5.90
2019-01-16T19:26:13.333Z,5.80
2019-01-16T19:28:18.772Z,5.80
2019-01-16T19:30:33.600Z,6.00
2019-01-16T19:32:39.017Z,5.90
2019-01-16T19:34:50.522Z,6.00
2019-01-16T19:37:07.747Z,5.80
2019-01-16T19:39:16.097Z,5.80
2019-01-16T19:41:36.873Z,5.90
2019-01-16T19:43:42.332Z,5.90
2019-01-16T19:48:31.341Z,6.10
2019-01-16T19:50:42.542Z,6.10
2019-01-16T19:53:04.956Z,6.10
2019-01-16T19:55:29.421Z,5.90
2019-01-16T19:57:34.864Z,5.90
2019-01-16T19:59:40.252Z,5.90
2019-01-16T20:01:54.688Z,5.90
2019-01-16T20:04:00.093Z,5.90
2019-01-16T20:06:05.668Z,6.00
2019-01-16T20:08:26.025Z,5.90
2019-01-16T20:10:40.415Z,6.00
2019-01-16T20:12:51.881Z,5.80
2019-01-16T20:15:03.323Z,5.80
2019-01-16T20:17:11.909Z,5.80
2019-01-16T20:19:17.322Z,5.90
2019-01-16T20:21:31.931Z,5.80
2019-01-16T20:23:53.966Z,5.90
2019-01-16T20:25:59.366Z,5.80
2019-01-16T20:28:23.097Z,5.80
2019-01-16T20:30:28.518Z,5.70
2019-01-16T20:32:33.921Z,5.70
2019-01-16T20:34:41.921Z,5.80
2019-01-16T20:36:53.246Z,5.60
2019-01-16T20:38:58.723Z,5.70
2019-01-16T20:41:16.089Z,5.80
2019-01-16T20:43:27.041Z,5.80
2019-01-16T20:45:35.396Z,5.80
2019-01-16T20:47:46.416Z,5.90
2019-01-16T20:50:08.381Z,5.90
2019-01-16T20:52:25.933Z,5.70
2019-01-16T20:54:31.517Z,5.90
2019-01-16T20:56:36.928Z,5.80
2019-01-16T20:58:42.345Z,5.90
2019-01-16T21:01:04.087Z,5.70
2019-01-16T21:03:27.552Z,5.80
2019-01-16T21:05:48.382Z,5.80
2019-01-16T21:07:53.810Z,5.60
2019-01-16T21:09:59.213Z,5.70
2019-01-16T21:12:16.982Z,5.70
2019-01-16T21:14:38.802Z,5.90
2019-01-16T21:16:49.777Z,5.70
2019-01-16T21:18:58.178Z,5.80
2019-01-16T21:21:03.655Z,5.60
2019-01-16T21:23:09.080Z,5.60
2019-01-16T21:25:31.121Z,5.70
2019-01-16T21:27:36.599Z,5.80
2019-01-16T21:29:44.914Z,5.90
2019-01-16T21:32:05.569Z,5.90
2019-01-16T21:34:22.764Z,5.70
2019-01-16T21:36:37.292Z,5.70
2019-01-16T21:38:42.716Z,5.50
2019-01-16T21:40:48.214Z,5.60
2019-01-16T21:42:59.498Z,5.60
2019-01-16T21:45:08.395Z,5.60
2019-01-16T21:47:36.478Z,5.60
2019-01-16T21:49:39.041Z,5.70
2019-01-16T21:51:59.754Z,5.70
2019-01-16T21:54:08.258Z,5.50
2019-01-16T21:56:13.710Z,5.50
2019-01-16T21:58:19.142Z,5.60
2019-01-16T22:00:41.338Z,5.40
2019-01-16T22:02:58.661Z,5.50
2019-01-16T22:05:13.063Z,5.40
2019-01-16T22:07:21.565Z,5.30
2019-01-16T22:09:27.095Z,5.30
2019-01-16T22:11:32.558Z,5.30
2019-01-16T22:13:38.013Z,5.30
2019-01-16T22:15:58.565Z,5.40
2019-01-16T22:18:15.982Z,5.40
2019-01-16T22:20:27.183Z,5.40
2019-01-16T22:22:32.627Z,5.40
2019-01-16T22:24:38.142Z,5.50
2019-01-16T22:26:49.195Z,5.70
2019-01-16T22:28:54.933Z,5.60
2019-01-16T22:31:06.370Z,5.40
2019-01-16T22:33:11.810Z,5.50
2019-01-16T22:35:17.305Z,5.60
2019-01-16T22:37:34.742Z,5.60
2019-01-16T22:39:52.321Z,5.50
2019-01-16T22:41:57.735Z,5.60
2019-01-16T22:44:08.672Z,5.50
2019-01-16T22:46:26.230Z,5.50
2019-01-16T22:48:40.406Z,5.40
2019-01-16T22:50:45.889Z,5.50
2019-01-16T22:53:07.817Z,5.40
2019-01-16T22:55:13.291Z,5.40
2019-01-16T22:57:18.764Z,5.50
2019-01-16T22:59:24.285Z,5.40
2019-01-16T23:01:29.824Z,5.50
2019-01-16T23:03:35.295Z,5.40
2019-01-16T23:05:46.626Z,5.30
2019-01-16T23:07:54.907Z,5.40
2019-01-16T23:10:00.334Z,5.40
2019-01-16T23:14:17.133Z,5.40
2019-01-16T23:16:22.560Z,5.30
2019-01-16T23:18:30.713Z,5.30
2019-01-16T23:20:45.133Z,5.40
2019-01-16T23:22:53.617Z,5.40
2019-01-16T23:24:59.041Z,5.50
2019-01-16T23:27:13.730Z,5.40
2019-01-16T23:29:22.058Z,5.40
2019-01-16T23:31:44.028Z,5.40
2019-01-16T23:34:07.528Z,5.30
2019-01-16T23:36:16.097Z,5.40
2019-01-16T23:38:37.577Z,5.40
2019-01-16T23:40:43.031Z,5.50
2019-01-16T23:42:48.474Z,5.40
2019-01-16T23:44:59.669Z,5.50
2019-01-16T23:47:14.058Z,5.40
2019-01-16T23:49:35.675Z,5.40
2019-01-16T23:51:43.878Z,5.30
2019-01-16T23:53:56.164Z,5.30
2019-01-16T23:56:07.996Z,5.30
2019-01-16T23:58:13.416Z,5.30
